Airfield :
LOGIN :

Register | Disclaimer

   EN    FR    IT 

 










Legend :    VFR   Marginal VFR   IFR   Intensive IFR   Very Intensive IFR
Visi :
Ceiling :
>= 8 km
>= 3000ft
5 to 8 km
1000 to 3000 ft
1500m to 5 km
500 to 1000 ft
800 to 1500m
200 to 500 ft
< 800m
< 200 ft
Symbols :   Thunderstorms  Fog  Heavy snow  Heavy precipitations  Wind > 20 kt
SIGMETs :     Misc.  Thunderstorms  Icing  Turbulence  Mountain Waves  Volcanic Ashes






- Airport Elevation : 144 ft
- IATA code : PGF


LFMP - Perpignan

CURRENT METAR :
  • 240530Z AUTO 31012KT 260V340 9999 FEW058 09/M03 Q1017 TEMPO 30021G36KT

EXPIRED METARs :
  • 240500Z AUTO 31013KT 280V350 9999 FEW056 09/M02 Q1017 TEMPO 30021G36KT
  • 240430Z AUTO 31016G26KT 270V340 CAVOK 09/M02 Q1017 TEMPO 30021G36KT
  • 240400Z AUTO 31010KT 9999 FEW064 09/M03 Q1016 TEMPO 30021G36KT
  • 240330Z AUTO 31011KT 280V340 CAVOK 09/M03 Q1017 TEMPO 30021G36KT
  • 240300Z AUTO 31013KT 9999 FEW066 09/M03 Q1017 TEMPO 30021G36KT
  • 240230Z AUTO 29013KT 260V320 9999 FEW064 10/M02 Q1016
  • 240130Z AUTO 30010KT 9999 FEW058 10/M02 Q1016
  • 240100Z AUTO 31012KT 270V360 9999 FEW066 SCT076 10/M02 Q1016

TAF TAF LFMP
Valid from the 24 at 03:00 until the 25 at 03:00 UTC


240200Z 2403/2503 30017G30KT 9999 FEW065
TEMPO 2404/2415 30021G36KT
BECMG 2420/2424 33010KT
ATIS : +33 4 68 63 75 12



MET'MAP, your aeronautical weather chart ! - Copyright ORBIFLY December 2007 - Disclaimer

ORBIFLY MET'MAP TEAM :

Programming & Development : Alexandra Zaïnal
Original concept : Baudouin d'Aumeries
Technical & hardware support : Manuel Goepfert
Assistance : Marc-Olivier Méhu




SOURCES & CREDITS :

   NOAA